Time;durP1;ratioP1;P1;durP2;ratioP2;P2;SDS_P1;SDS_P2;PMS_P1;PMS_P2;Temp;Humidity;BMP_temperature;BMP_pressure;BME280_temperature;BME280_humidity;BME280_pressure;Samples;Min_cycle;Max_cycle;Signal;HPM_P1;HPM_P2
2022/07/27 00:01:28;;;;;;;;;;;;;;;27.33;59.99;100821.75;4975851;28;19917;-89
2022/07/27 00:03:53;;;;;;;;;;;;;;;27.34;59.97;100830.66;4959254;28;19933;-90
2022/07/27 00:06:19;;;;;;;;;;;;;;;27.30;59.95;100826.25;4974430;28;19917;-90
2022/07/27 00:08:56;;;;;;;;;;;;;;;27.33;59.91;100835.16;4959133;28;20312;-90
2022/07/27 00:11:24;;;;;;;;;;;;;;;27.35;59.90;100832.47;4955589;28;20491;-90
2022/07/27 00:13:57;;;;;;;;;;;;;;;27.30;60.03;100832.50;4959115;28;20422;-90
2022/07/27 00:16:24;;;;;;;;;;;;;;;27.30;60.11;100834.31;4962831;28;19925;-91
2022/07/27 00:18:49;;;;;;;;;;;;;;;27.29;59.77;100838.78;4965536;28;19938;-90
2022/07/27 00:21:18;;;;;;;;;;;;;;;27.29;59.99;100829.88;4972706;28;20033;-91
2022/07/27 00:23:47;;;;;;;;;;;;;;;27.28;60.09;100830.75;4977917;28;19924;-91
2022/07/27 00:26:13;;;;;;;;;;;;;;;27.30;59.99;100831.63;4973810;28;19918;-90
2022/07/27 00:28:38;;;;;;;;;;;;;;;27.27;59.73;100816.47;4978676;28;19921;-90
2022/07/27 00:31:04;;;;;;;;;;;;;;;27.29;59.69;100820.00;4977104;28;19926;-91
2022/07/27 00:33:32;;;;;;;;;;;;;;;27.29;59.60;100830.75;4977238;28;19918;-90
2022/07/27 00:36:01;;;;;;;;;;;;;;;27.31;59.59;100833.41;4961234;28;19918;-90
2022/07/27 00:38:32;;;;;;;;;;;;;;;27.30;59.82;100832.50;4960762;28;19918;-90
2022/07/27 00:40:57;;;;;;;;;;;;;;;27.29;59.63;100829.88;4985938;28;19922;-91
2022/07/27 00:43:22;;;;;;;;;;;;;;;27.28;59.78;100830.75;4954145;28;20305;-90
2022/07/27 00:45:50;;;;;;;;;;;;;;;27.25;59.59;100831.69;4959336;28;21333;-90
2022/07/27 00:48:15;;;;;;;;;;;;;;;27.24;59.84;100829.03;4956951;28;19981;-91
2022/07/27 00:50:41;;;;;;;;;;;;;;;27.27;59.64;100834.34;4957089;28;20395;-91
2022/07/27 00:53:07;;;;;;;;;;;;;;;27.23;59.84;100828.16;4977847;28;20374;-90
2022/07/27 00:55:33;;;;;;;;;;;;;;;27.25;59.68;100830.81;4953481;28;20009;-90
2022/07/27 00:58:04;;;;;;;;;;;;;;;27.25;59.55;100825.44;4960424;28;19968;-90
2022/07/27 01:00:36;;;;;;;;;;;;;;;27.22;59.80;100821.03;4977356;28;19918;-90
2022/07/27 01:03:02;;;;;;;;;;;;;;;27.25;59.63;100820.09;4977317;28;19924;-90
2022/07/27 01:05:27;;;;;;;;;;;;;;;27.24;59.73;100813.81;4959169;28;20016;-89
2022/07/27 01:07:53;;;;;;;;;;;;;;;27.26;59.79;100812.00;4957135;28;19929;-89
2022/07/27 01:10:18;;;;;;;;;;;;;;;27.26;59.75;100806.63;4966931;28;19918;-91
2022/07/27 01:12:44;;;;;;;;;;;;;;;27.25;59.55;100804.88;4960478;28;19918;-89
2022/07/27 01:15:14;;;;;;;;;;;;;;;27.25;59.60;100804.00;4975895;28;19917;-90
2022/07/27 01:17:40;;;;;;;;;;;;;;;27.24;59.53;100802.22;4959347;28;19918;-90
2022/07/27 01:20:07;;;;;;;;;;;;;;;27.20;59.56;100804.91;4976737;28;19918;-90
2022/07/27 01:22:35;;;;;;;;;;;;;;;27.18;59.81;100797.81;4972778;28;19929;-89
2022/07/27 01:25:00;;;;;;;;;;;;;;;27.19;59.83;100803.13;4950652;28;20017;-90
2022/07/27 01:27:27;;;;;;;;;;;;;;;27.20;59.57;100802.22;4960390;28;20008;-90
2022/07/27 01:29:52;;;;;;;;;;;;;;;27.17;59.94;100807.63;4976996;28;19926;-90
2022/07/27 01:32:19;;;;;;;;;;;;;;;27.19;59.79;100810.28;4960174;28;19925;-89
2022/07/27 01:34:48;;;;;;;;;;;;;;;27.16;59.53;100811.22;4958756;28;19926;-90
2022/07/27 01:37:21;;;;;;;;;;;;;;;27.18;59.50;100803.16;4975899;28;19972;-90
2022/07/27 01:39:48;;;;;;;;;;;;;;;27.17;59.54;100807.63;4959947;28;19925;-90
2022/07/27 01:42:15;;;;;;;;;;;;;;;27.20;59.57;100804.03;4975948;28;19957;-92
2022/07/27 01:44:49;;;;;;;;;;;;;;;27.18;59.44;100796.00;4992864;28;19918;-91
2022/07/27 01:47:36;;;;;;;;;;;;;;;27.17;59.45;100796.03;4976030;28;19924;-93
2022/07/27 01:50:16;;;;;;;;;;;;;;;27.15;59.68;100804.06;4970713;28;20415;-92
2022/07/27 01:52:54;;;;;;;;;;;;;;;27.17;59.60;100809.44;4961051;28;19918;-93
2022/07/27 01:55:56;;;;;;;;;;;;;;;27.13;59.84;100805.88;4973930;28;19918;-94
2022/07/27 02:01:25;;;;;;;;;;;;;;;27.16;59.63;100815.72;4988750;28;19956;-93
2022/07/27 02:06:53;;;;;;;;;;;;;;;27.17;59.70;100809.44;4992875;28;19925;-93
2022/07/27 02:09:55;;;;;;;;;;;;;;;27.12;59.60;100809.50;4960609;28;19922;-92
2022/07/27 02:12:35;;;;;;;;;;;;;;;27.09;59.64;100811.31;4987741;28;20396;-94
2022/07/27 02:15:21;;;;;;;;;;;;;;;27.11;59.51;100809.50;4957458;28;20226;-92
2022/07/27 02:17:57;;;;;;;;;;;;;;;27.10;59.82;100805.06;4976372;28;20477;-93
2022/07/27 02:20:24;;;;;;;;;;;;;;;27.08;59.75;100810.44;4957873;28;19918;-94
2022/07/27 02:23:12;;;;;;;;;;;;;;;27.04;59.72;100810.50;4968365;28;19961;-93
2022/07/27 02:26:00;;;;;;;;;;;;;;;27.10;59.58;100813.09;4988661;28;19918;-94
2022/07/27 02:28:51;;;;;;;;;;;;;;;27.10;59.41;100814.00;4990278;28;20300;-92
2022/07/27 02:31:32;;;;;;;;;;;;;;;27.10;59.35;100811.31;4973197;28;19918;-93
2022/07/27 02:34:14;;;;;;;;;;;;;;;27.07;59.43;100805.97;4970604;28;19918;-93
2022/07/27 02:36:43;;;;;;;;;;;;;;;27.08;59.46;100814.94;4960467;28;19924;-91
2022/07/27 02:39:11;;;;;;;;;;;;;;;27.07;59.52;100805.97;4973444;28;19977;-89
2022/07/27 02:41:39;;;;;;;;;;;;;;;27.07;59.56;100803.28;4975531;28;19968;-89
2022/07/27 02:44:16;;;;;;;;;;;;;;;27.06;59.37;100812.25;4959847;28;19976;-91
2022/07/27 02:46:47;;;;;;;;;;;;;;;27.02;59.46;100811.41;4972059;28;20378;-92
2022/07/27 02:49:22;;;;;;;;;;;;;;;27.00;59.75;100813.22;4958320;28;19925;-91
2022/07/27 02:51:50;;;;;;;;;;;;;;;26.98;59.73;100808.78;4969871;28;19918;-92
2022/07/27 02:54:19;;;;;;;;;;;;;;;26.99;59.55;100818.63;4973753;28;20016;-92
2022/07/27 02:56:51;;;;;;;;;;;;;;;27.02;59.50;100818.56;4959371;28;19921;-92
2022/07/27 02:59:21;;;;;;;;;;;;;;;27.01;59.36;100817.69;4974794;28;19924;-91
2022/07/27 03:01:47;;;;;;;;;;;;;;;27.02;59.33;100813.19;4974735;28;19925;-91
2022/07/27 03:04:12;;;;;;;;;;;;;;;27.03;59.68;100812.31;4976135;28;20362;-91
2022/07/27 03:06:38;;;;;;;;;;;;;;;27.01;59.65;100812.31;4959246;28;19991;-91
2022/07/27 03:09:06;;;;;;;;;;;;;;;26.98;59.41;100815.03;4958473;28;19922;-90
2022/07/27 03:11:32;;;;;;;;;;;;;;;26.97;59.74;100815.94;4984298;28;19918;-91
2022/07/27 03:13:57;;;;;;;;;;;;;;;26.96;59.69;100811.47;4957768;28;20004;-90
2022/07/27 03:16:23;;;;;;;;;;;;;;;26.79;59.65;100778.66;4958498;28;19929;-90
2022/07/27 03:18:49;;;;;;;;;;;;;;;26.96;59.73;100807.91;4975232;28;19925;-91
2022/07/27 03:21:15;;;;;;;;;;;;;;;26.94;59.58;100812.41;4959024;28;19914;-90
2022/07/27 03:23:42;;;;;;;;;;;;;;;26.95;59.29;100806.16;4956536;28;20400;-90
2022/07/27 03:26:07;;;;;;;;;;;;;;;26.92;59.75;100806.19;4953734;28;20289;-91
2022/07/27 03:28:35;;;;;;;;;;;;;;;26.93;59.53;100813.34;4950659;28;19928;-91
2022/07/27 03:31:00;;;;;;;;;;;;;;;26.96;59.27;100805.25;4955903;28;20388;-90
2022/07/27 03:33:27;;;;;;;;;;;;;;;26.92;59.51;100809.75;4957968;28;19925;-90
2022/07/27 03:35:52;;;;;;;;;;;;;;;26.92;59.55;100799.03;4956379;28;20406;-88
2022/07/27 03:38:18;;;;;;;;;;;;;;;26.94;59.51;100804.38;4956437;28;20004;-88
2022/07/27 03:40:44;;;;;;;;;;;;;;;26.91;59.19;100794.59;4949986;28;19914;-89
2022/07/27 03:43:10;;;;;;;;;;;;;;;26.92;59.35;100803.50;4974518;28;19920;-90
2022/07/27 03:45:37;;;;;;;;;;;;;;;26.91;59.28;100799.94;4951182;28;19969;-89
2022/07/27 03:48:03;;;;;;;;;;;;;;;26.89;59.17;100804.44;4957132;28;19918;-91
2022/07/27 03:50:28;;;;;;;;;;;;;;;26.90;59.53;100811.59;4955125;28;19976;-90
2022/07/27 03:52:55;;;;;;;;;;;;;;;26.88;59.45;100810.72;4971954;28;19945;-89
2022/07/27 03:55:20;;;;;;;;;;;;;;;26.87;59.56;100811.59;4991814;28;19969;-89
2022/07/27 03:57:49;;;;;;;;;;;;;;;26.90;59.49;100802.63;4952565;28;19980;-92
2022/07/27 04:00:17;;;;;;;;;;;;;;;26.92;59.27;100803.50;4973609;28;19941;-91
2022/07/27 04:02:43;;;;;;;;;;;;;;;26.87;59.22;100806.25;4960244;28;19981;-91
2022/07/27 04:05:08;;;;;;;;;;;;;;;26.89;59.02;100811.59;4961398;28;20383;-90
2022/07/27 04:07:34;;;;;;;;;;;;;;;26.86;59.44;100814.28;4960947;28;19922;-90
2022/07/27 04:09:59;;;;;;;;;;;;;;;26.88;59.27;100818.75;4978003;28;20415;-90
2022/07/27 04:12:25;;;;;;;;;;;;;;;26.89;59.31;100812.47;4961504;28;19918;-90
2022/07/27 04:14:50;;;;;;;;;;;;;;;26.88;59.42;100821.44;4960976;28;19914;-90
2022/07/27 04:17:15;;;;;;;;;;;;;;;26.89;59.17;100820.50;4962594;28;19921;-90
2022/07/27 04:19:42;;;;;;;;;;;;;;;26.82;59.35;100824.19;4977436;28;19925;-91
2022/07/27 04:22:10;;;;;;;;;;;;;;;26.83;59.29;100825.94;4975085;28;20017;-89
2022/07/27 04:24:39;;;;;;;;;;;;;;;26.80;59.32;100826.88;4960996;28;19918;-92
2022/07/27 04:27:06;;;;;;;;;;;;;;;26.80;59.14;100826.88;4993031;28;19924;-92
2022/07/27 04:29:34;;;;;;;;;;;;;;;26.81;59.11;100822.41;4961598;28;19973;-91
2022/07/27 04:31:59;;;;;;;;;;;;;;;26.79;59.32;100825.09;4960279;28;20005;-91
2022/07/27 04:34:25;;;;;;;;;;;;;;;26.81;59.06;100825.06;4960890;28;20016;-91
2022/07/27 04:36:50;;;;;;;;;;;;;;;26.79;59.11;100825.09;4971264;28;19917;-90
2022/07/27 04:39:16;;;;;;;;;;;;;;;26.84;59.24;100824.16;4961244;28;20310;-91
2022/07/27 04:41:45;;;;;;;;;;;;;;;26.79;59.10;100819.72;4961925;28;19914;-90
2022/07/27 04:44:17;;;;;;;;;;;;;;;26.82;58.96;100829.53;4974948;28;19921;-91
2022/07/27 04:46:47;;;;;;;;;;;;;;;26.77;59.18;100832.25;4958183;28;19922;-89
2022/07/27 04:49:16;;;;;;;;;;;;;;;26.76;59.37;100835.84;4993961;28;19922;-91
2022/07/27 04:51:43;;;;;;;;;;;;;;;26.78;59.00;100835.84;4976356;28;19940;-91
2022/07/27 04:54:08;;;;;;;;;;;;;;;26.78;59.14;100827.81;4960140;28;19917;-91
2022/07/27 04:56:34;;;;;;;;;;;;;;;26.77;59.12;100834.06;4960437;28;19980;-90
2022/07/27 04:58:59;;;;;;;;;;;;;;;26.72;59.10;100828.75;4958084;28;19925;-91
2022/07/27 05:01:25;;;;;;;;;;;;;;;26.77;59.01;100834.94;4960180;28;20025;-92
2022/07/27 05:04:10;;;;;;;;;;;;;;;26.76;59.05;100837.66;4960778;28;19918;-92
2022/07/27 05:06:35;;;;;;;;;;;;;;;26.77;59.32;100839.41;4972471;28;19924;-90
2022/07/27 05:09:01;;;;;;;;;;;;;;;26.75;59.08;100836.75;4959737;28;20012;-91
2022/07/27 05:11:26;;;;;;;;;;;;;;;26.76;59.16;100840.34;4960941;28;19918;-91
2022/07/27 05:13:52;;;;;;;;;;;;;;;26.77;59.24;100844.78;4960271;28;19917;-91
2022/07/27 05:16:20;;;;;;;;;;;;;;;26.75;59.21;100841.22;4961153;28;20362;-91
2022/07/27 05:18:46;;;;;;;;;;;;;;;26.78;59.26;100839.41;4958524;28;19965;-91
2022/07/27 05:21:14;;;;;;;;;;;;;;;26.81;59.51;100839.34;4965869;28;19922;-90
2022/07/27 05:23:39;;;;;;;;;;;;;;;26.80;59.46;100840.28;4965053;28;20243;-90
2022/07/27 05:26:07;;;;;;;;;;;;;;;26.80;59.61;100848.31;4951052;28;20380;-90
2022/07/27 05:28:34;;;;;;;;;;;;;;;26.80;59.50;100845.63;4955099;28;19929;-88
2022/07/27 05:30:59;;;;;;;;;;;;;;;26.81;59.67;100850.06;4977594;28;20073;-89
2022/07/27 05:33:25;;;;;;;;;;;;;;;26.81;59.61;100852.75;4963599;28;20016;-90
2022/07/27 05:35:50;;;;;;;;;;;;;;;26.82;59.53;100850.97;4944704;28;19925;-90
2022/07/27 05:38:15;;;;;;;;;;;;;;;26.81;59.58;100852.75;4958313;28;19924;-89
2022/07/27 05:40:44;;;;;;;;;;;;;;;26.80;59.46;100855.47;4950484;28;20004;-88
2022/07/27 05:43:09;;;;;;;;;;;;;;;26.80;59.29;100864.38;4956928;28;19924;-89
2022/07/27 05:45:35;;;;;;;;;;;;;;;26.81;59.31;100860.78;4969962;28;19918;-91
2022/07/27 05:48:00;;;;;;;;;;;;;;;26.80;59.57;100858.16;4952575;28;20307;-86
2022/07/27 05:50:26;;;;;;;;;;;;;;;26.79;59.61;100859.03;4948923;28;19918;-87
2022/07/27 05:52:51;;;;;;;;;;;;;;;26.80;59.60;100858.16;4993517;28;20387;-87
2022/07/27 05:55:17;;;;;;;;;;;;;;;26.76;59.52;100854.59;4975935;28;19914;-88
2022/07/27 05:57:43;;;;;;;;;;;;;;;26.77;59.95;100853.69;4993303;28;19922;-86
2022/07/27 06:00:09;;;;;;;;;;;;;;;26.73;59.98;100857.34;4952712;28;19914;-87
2022/07/27 06:02:34;;;;;;;;;;;;;;;26.75;59.94;100858.19;4975158;28;20383;-87
2022/07/27 06:05:02;;;;;;;;;;;;;;;26.73;59.91;100856.44;4974092;28;19921;-88
2022/07/27 06:10:11;;;;;;;;;;;;;;;26.74;59.87;100856.41;4978186;28;19972;-87
2022/07/27 06:12:40;;;;;;;;;;;;;;;26.74;60.01;100855.53;4955132;28;19918;-88
2022/07/27 06:15:07;;;;;;;;;;;;;;;26.69;60.11;100852.91;4960132;28;19921;-88
2022/07/27 06:17:32;;;;;;;;;;;;;;;26.72;60.08;100854.66;4956206;28;20312;-86
2022/07/27 06:19:58;;;;;;;;;;;;;;;26.75;59.76;100851.94;4972516;28;19925;-88
2022/07/27 06:22:23;;;;;;;;;;;;;;;26.72;60.00;100855.53;4971545;28;19929;-87
2022/07/27 06:24:49;;;;;;;;;;;;;;;26.74;59.81;100856.41;4971653;28;19925;-87
2022/07/27 06:27:14;;;;;;;;;;;;;;;26.76;59.94;100851.94;4952777;28;19918;-86
2022/07/27 06:29:39;;;;;;;;;;;;;;;26.75;59.98;100858.19;4975004;28;19922;-87
2022/07/27 06:32:05;;;;;;;;;;;;;;;26.73;59.95;100851.97;4974097;28;19918;-88
2022/07/27 06:34:32;;;;;;;;;;;;;;;26.73;60.02;100851.97;4974617;28;19918;-89
2022/07/27 06:36:58;;;;;;;;;;;;;;;26.72;59.91;100854.66;4958438;28;19918;-88
2022/07/27 06:39:24;;;;;;;;;;;;;;;26.71;60.17;100858.22;4988067;28;19917;-87
2022/07/27 06:41:50;;;;;;;;;;;;;;;26.71;60.12;100847.53;4948701;28;19926;-88
2022/07/27 06:44:16;;;;;;;;;;;;;;;26.69;60.22;100850.25;4990883;28;19949;-90
2022/07/27 06:46:41;;;;;;;;;;;;;;;26.71;60.06;100847.53;4992806;28;20303;-87
2022/07/27 06:49:07;;;;;;;;;;;;;;;26.66;60.25;100852.94;4975406;28;19957;-85
2022/07/27 06:51:32;;;;;;;;;;;;;;;26.63;60.45;100852.97;4973138;28;19918;-86
2022/07/27 06:53:58;;;;;;;;;;;;;;;26.69;60.17;100849.31;4975224;28;19924;-88
2022/07/27 06:56:23;;;;;;;;;;;;;;;26.67;60.45;100853.81;4968371;28;19984;-84
2022/07/27 06:58:52;;;;;;;;;;;;;;;26.65;60.51;100855.63;4978737;28;19913;-84
2022/07/27 07:01:18;;;;;;;;;;;;;;;26.72;60.07;100865.38;4989297;28;19961;-85
2022/07/27 07:03:43;;;;;;;;;;;;;;;26.70;60.45;100857.34;4988501;28;19965;-87
2022/07/27 07:06:09;;;;;;;;;;;;;;;26.70;60.26;100862.72;4966883;28;19922;-86
2022/07/27 07:08:34;;;;;;;;;;;;;;;26.70;60.38;100860.03;4960542;28;19961;-85
2022/07/27 07:11:00;;;;;;;;;;;;;;;26.65;60.47;100853.84;4971701;28;19925;-87
2022/07/27 07:13:26;;;;;;;;;;;;;;;26.65;60.34;100853.84;4955102;28;20442;-88
2022/07/27 07:15:51;;;;;;;;;;;;;;;26.68;60.58;100859.16;4972657;28;19918;-86
2022/07/27 07:18:17;;;;;;;;;;;;;;;26.69;60.45;100855.59;4971044;28;20462;-87
2022/07/27 07:20:42;;;;;;;;;;;;;;;26.70;60.39;100856.47;4954245;28;19919;-87
2022/07/27 07:23:08;;;;;;;;;;;;;;;26.73;60.42;100864.47;4949365;28;20000;-87
2022/07/27 07:25:34;;;;;;;;;;;;;;;26.73;60.44;100861.78;4978380;28;19918;-85
2022/07/27 07:27:59;;;;;;;;;;;;;;;26.73;60.13;100859.09;4954961;28;20369;-87
2022/07/27 07:30:25;;;;;;;;;;;;;;;26.73;60.22;100853.75;4968402;28;19985;-86
2022/07/27 07:32:50;;;;;;;;;;;;;;;26.78;60.32;100858.16;4961389;28;19918;-87
2022/07/27 07:35:16;;;;;;;;;;;;;;;26.76;60.20;100851.06;4976797;28;19917;-86
2022/07/27 07:37:42;;;;;;;;;;;;;;;26.74;60.33;100859.09;4974816;28;20470;-88
2022/07/27 07:40:09;;;;;;;;;;;;;;;26.77;60.40;100860.84;4954405;28;20415;-84
2022/07/27 07:42:51;;;;;;;;;;;;;;;26.72;60.54;100860.03;4985179;28;19913;-88
2022/07/27 07:45:17;;;;;;;;;;;;;;;26.71;60.53;100864.50;4935101;28;19920;-87
2022/07/27 07:47:42;;;;;;;;;;;;;;;26.71;60.33;100863.59;4966247;28;20009;-86
2022/07/27 07:50:10;;;;;;;;;;;;;;;26.74;60.53;100869.81;4971824;28;19923;-85
2022/07/27 07:52:36;;;;;;;;;;;;;;;26.74;60.34;100869.81;4959561;28;19961;-87
2022/07/27 07:55:01;;;;;;;;;;;;;;;26.73;60.41;100868.06;4959432;28;20435;-86
2022/07/27 07:57:27;;;;;;;;;;;;;;;26.81;60.57;100865.28;4959073;28;20403;-88
2022/07/27 07:59:54;;;;;;;;;;;;;;;26.77;60.47;100866.19;4941677;28;19922;-86
2022/07/27 08:02:20;;;;;;;;;;;;;;;26.78;60.57;100863.53;4979263;28;20388;-87
2022/07/27 08:04:46;;;;;;;;;;;;;;;26.77;60.35;100869.75;4977805;28;19924;-87
2022/07/27 08:07:11;;;;;;;;;;;;;;;26.80;60.47;100866.19;4960883;28;19965;-87
2022/07/27 08:09:37;;;;;;;;;;;;;;;26.75;60.22;100870.69;4992314;28;19949;-85
2022/07/27 08:12:03;;;;;;;;;;;;;;;26.77;60.54;100867.09;4993798;28;19925;-87
2022/07/27 08:14:30;;;;;;;;;;;;;;;26.76;60.66;100869.81;4976939;28;19914;-86
2022/07/27 08:16:58;;;;;;;;;;;;;;;26.72;60.71;100868.94;4977593;28;20001;-88
2022/07/27 08:19:27;;;;;;;;;;;;;;;26.76;60.56;100872.47;4995237;28;19918;-86
2022/07/27 08:21:52;;;;;;;;;;;;;;;26.80;60.23;100875.09;4986631;28;19918;-88
2022/07/27 08:24:18;;;;;;;;;;;;;;;26.82;60.32;100875.09;4960306;28;19914;-88
2022/07/27 08:26:43;;;;;;;;;;;;;;;26.79;60.11;100875.13;4977087;28;19921;-88
2022/07/27 08:29:08;;;;;;;;;;;;;;;26.77;60.28;100875.13;4961847;28;19925;-87
2022/07/27 08:31:34;;;;;;;;;;;;;;;26.79;60.19;100872.44;4975341;28;19917;-88
2022/07/27 08:34:01;;;;;;;;;;;;;;;26.78;60.08;100870.69;4976961;28;19925;-90
2022/07/27 08:36:27;;;;;;;;;;;;;;;26.80;60.11;100874.22;4946665;28;19924;-89
2022/07/27 08:38:53;;;;;;;;;;;;;;;26.77;60.18;100871.56;4960213;28;19921;-90
2022/07/27 08:41:19;;;;;;;;;;;;;;;26.79;60.01;100878.66;4962198;28;20442;-88
2022/07/27 08:43:46;;;;;;;;;;;;;;;26.78;59.83;100878.72;4961440;28;19917;-88
2022/07/27 08:46:11;;;;;;;;;;;;;;;26.82;59.78;100880.47;4961546;28;19914;-89
2022/07/27 08:48:37;;;;;;;;;;;;;;;26.78;59.81;100881.41;4958802;28;19925;-90
2022/07/27 08:51:03;;;;;;;;;;;;;;;26.78;59.91;100889.44;4972128;28;19921;-90
2022/07/27 08:53:33;;;;;;;;;;;;;;;26.84;59.58;100881.31;4974980;28;19925;-90
2022/07/27 08:55:58;;;;;;;;;;;;;;;26.85;59.82;100883.09;4977762;28;19996;-89
2022/07/27 08:58:24;;;;;;;;;;;;;;;26.79;59.90;100886.72;4958492;28;19960;-92
2022/07/27 09:00:49;;;;;;;;;;;;;;;26.79;59.99;100892.06;4956931;28;19914;-90
2022/07/27 09:03:16;;;;;;;;;;;;;;;26.82;59.88;100893.84;4959157;28;19918;-89
2022/07/27 09:05:42;;;;;;;;;;;;;;;26.80;59.68;100892.97;4962235;28;19914;-88
2022/07/27 09:08:09;;;;;;;;;;;;;;;26.78;60.04;100903.72;4960827;28;20016;-89
2022/07/27 09:10:36;;;;;;;;;;;;;;;26.79;60.05;100901.91;4969298;28;19926;-88
2022/07/27 09:13:21;;;;;;;;;;;;;;;26.77;59.85;100898.34;4969880;28;19919;-88
2022/07/27 09:15:48;;;;;;;;;;;;;;;26.75;60.03;100895.69;4993657;28;19936;-89
2022/07/27 09:18:19;;;;;;;;;;;;;;;26.77;59.90;100896.56;4967108;28;19948;-90
2022/07/27 09:20:49;;;;;;;;;;;;;;;26.77;59.99;100901.03;4964892;28;20430;-91
2022/07/27 09:23:24;;;;;;;;;;;;;;;26.77;59.74;100895.69;4963672;28;20422;-89
2022/07/27 09:25:51;;;;;;;;;;;;;;;26.78;59.62;100895.66;4962343;28;19977;-89
2022/07/27 09:28:17;;;;;;;;;;;;;;;26.78;59.78;100902.81;4952565;28;19914;-88
2022/07/27 09:30:42;;;;;;;;;;;;;;;26.79;60.06;100904.59;4971779;28;19924;-88
2022/07/27 09:33:08;;;;;;;;;;;;;;;26.80;59.94;100906.38;4976920;28;20399;-90
2022/07/27 09:35:34;;;;;;;;;;;;;;;26.77;59.73;100898.34;4996325;28;19926;-87
2022/07/27 09:38:20;;;;;;;;;;;;;;;26.76;59.98;100910.88;4977976;28;19914;-88
2022/07/27 09:40:48;;;;;;;;;;;;;;;26.75;59.91;100906.41;4989205;28;19921;-89
2022/07/27 09:43:13;;;;;;;;;;;;;;;26.77;59.93;100901.03;4974315;28;19969;-88
2022/07/27 09:45:42;;;;;;;;;;;;;;;26.79;59.84;100900.09;4959612;28;19921;-88
2022/07/27 09:48:11;;;;;;;;;;;;;;;26.79;59.96;100904.59;4976927;28;19994;-88
2022/07/27 09:50:40;;;;;;;;;;;;;;;26.81;59.94;100897.41;4972907;28;19944;-89
2022/07/27 09:53:21;;;;;;;;;;;;;;;26.79;59.90;100904.59;4976874;28;19922;-87
2022/07/27 09:56:00;;;;;;;;;;;;;;;26.78;59.72;100901.03;4986932;28;19914;-89
2022/07/27 09:58:45;;;;;;;;;;;;;;;26.80;59.83;100907.25;4978242;28;20387;-89
2022/07/27 10:01:12;;;;;;;;;;;;;;;26.80;59.59;100907.25;4973488;28;19914;-88
2022/07/27 10:03:38;;;;;;;;;;;;;;;26.80;59.73;100899.22;4960404;28;20403;-88
2022/07/27 10:06:03;;;;;;;;;;;;;;;26.81;59.42;100897.41;4958735;28;20437;-88
2022/07/27 10:08:30;;;;;;;;;;;;;;;26.80;59.50;100895.66;4960476;28;19922;-89
2022/07/27 10:10:56;;;;;;;;;;;;;;;26.81;59.36;100892.94;4957341;28;20423;-88
2022/07/27 10:13:22;;;;;;;;;;;;;;;26.82;59.56;100893.84;4973647;28;19925;-87
2022/07/27 10:15:48;;;;;;;;;;;;;;;26.83;59.58;100900.09;4952397;28;19918;-89
2022/07/27 10:18:16;;;;;;;;;;;;;;;26.87;60.33;100901.84;4974248;28;20016;-88
2022/07/27 10:20:41;;;;;;;;;;;;;;;26.95;59.96;100899.97;4936182;28;19973;-89
2022/07/27 10:23:07;;;;;;;;;;;;;;;26.90;59.86;100899.09;4948476;29;19961;-89
2022/07/27 10:25:33;;;;;;;;;;;;;;;26.87;60.13;100902.72;4960637;28;19926;-89
2022/07/27 10:28:09;;;;;;;;;;;;;;;26.88;59.52;100907.19;4956780;28;19914;-88
2022/07/27 10:30:35;;;;;;;;;;;;;;;26.88;59.82;100903.59;4964713;28;19922;-89
2022/07/27 10:33:14;;;;;;;;;;;;;;;26.85;59.78;100900.97;4935177;28;20307;-88
2022/07/27 10:35:40;;;;;;;;;;;;;;;26.85;59.76;100903.66;4946044;28;20396;-88
2022/07/27 10:38:07;;;;;;;;;;;;;;;26.84;59.68;100904.53;4939368;28;20008;-88
2022/07/27 10:40:37;;;;;;;;;;;;;;;26.87;59.64;100910.75;4926107;28;19930;-89
2022/07/27 10:43:07;;;;;;;;;;;;;;;26.89;59.57;100914.31;4936395;28;19919;-88
2022/07/27 10:45:40;;;;;;;;;;;;;;;26.86;59.61;100908.09;4938644;28;19988;-89
2022/07/27 10:48:06;;;;;;;;;;;;;;;26.84;59.65;100909.91;4924782;28;19942;-89
2022/07/27 10:50:32;;;;;;;;;;;;;;;26.88;59.57;100903.59;4921929;28;19915;-89
2022/07/27 10:52:59;;;;;;;;;;;;;;;26.88;59.53;100901.81;4950148;28;19914;-87
2022/07/27 10:55:35;;;;;;;;;;;;;;;26.89;59.54;100894.66;4947126;28;19977;-88
2022/07/27 10:58:12;;;;;;;;;;;;;;;26.89;59.26;100910.75;4955003;28;19925;-88
2022/07/27 11:00:50;;;;;;;;;;;;;;;26.89;59.26;100908.94;4953322;28;19924;-89
2022/07/27 11:03:19;;;;;;;;;;;;;;;26.90;59.43;100907.16;4954446;28;19985;-88
2022/07/27 11:06:07;;;;;;;;;;;;;;;26.89;59.48;100903.59;4954082;28;19929;-88
2022/07/27 11:08:36;;;;;;;;;;;;;;;26.88;59.10;100892.88;4969060;28;19922;-89
2022/07/27 11:11:04;;;;;;;;;;;;;;;26.92;59.06;100894.63;4954601;28;20017;-89
2022/07/27 11:13:30;;;;;;;;;;;;;;;26.90;59.43;100888.38;4939572;28;20528;-89
2022/07/27 11:15:57;;;;;;;;;;;;;;;26.89;59.26;100892.00;4951626;28;19918;-89
2022/07/27 11:18:33;;;;;;;;;;;;;;;26.91;59.35;100900.91;4932592;28;19914;-88
2022/07/27 11:21:17;;;;;;;;;;;;;;;26.89;59.37;100908.06;4948357;28;19943;-89
2022/07/27 11:23:45;;;;;;;;;;;;;;;26.92;59.46;100908.03;4943805;28;19918;-89
2022/07/27 11:26:11;;;;;;;;;;;;;;;26.93;59.03;100915.16;4927473;29;19925;-88
2022/07/27 11:28:37;;;;;;;;;;;;;;;26.92;59.49;100903.53;4939356;28;19918;-90
2022/07/27 11:31:03;;;;;;;;;;;;;;;26.92;59.26;100903.53;4935998;28;19918;-88
2022/07/27 11:33:29;;;;;;;;;;;;;;;26.93;59.45;100899.97;4954639;28;19914;-88
2022/07/27 11:35:56;;;;;;;;;;;;;;;26.93;59.34;100902.66;4946542;28;19922;-88
2022/07/27 11:38:22;;;;;;;;;;;;;;;26.93;59.55;100899.09;4930594;28;19918;-88
2022/07/27 11:40:49;;;;;;;;;;;;;;;26.97;59.18;100898.16;4953298;28;20027;-89
2022/07/27 11:43:31;;;;;;;;;;;;;;;27.00;59.09;100898.09;4934461;28;20012;-88
2022/07/27 11:45:56;;;;;;;;;;;;;;;26.99;59.49;100899.03;4930800;28;19918;-88
2022/07/27 11:48:22;;;;;;;;;;;;;;;26.97;59.59;100900.84;4952204;28;19938;-88
2022/07/27 11:50:57;;;;;;;;;;;;;;;26.97;59.39;100901.72;4950984;28;19918;-89
2022/07/27 11:53:22;;;;;;;;;;;;;;;26.98;59.67;100891.88;4971045;28;19927;-88
2022/07/27 11:55:48;;;;;;;;;;;;;;;26.98;59.42;100890.06;4955193;28;19977;-87
2022/07/27 11:58:17;;;;;;;;;;;;;;;26.98;59.65;100892.75;4954315;28;19922;-87
2022/07/27 12:00:43;;;;;;;;;;;;;;;26.98;59.28;100882.03;4954314;28;19919;-87
2022/07/27 12:03:19;;;;;;;;;;;;;;;27.03;59.42;100884.69;4952896;28;19919;-86
2022/07/27 12:05:47;;;;;;;;;;;;;;;27.01;59.58;100873.97;4952118;28;19933;-87
2022/07/27 12:08:13;;;;;;;;;;;;;;;27.05;59.48;100879.28;4980837;28;19933;-86
2022/07/27 12:10:38;;;;;;;;;;;;;;;27.05;59.53;100879.28;4951618;28;20424;-87
2022/07/27 12:13:04;;;;;;;;;;;;;;;27.05;59.24;100876.59;4968281;28;20436;-88
2022/07/27 12:15:29;;;;;;;;;;;;;;;27.04;59.30;100883.75;4966377;28;19920;-89
2022/07/27 12:17:57;;;;;;;;;;;;;;;27.05;59.39;100880.19;4947797;28;19936;-89
2022/07/27 12:20:30;;;;;;;;;;;;;;;27.09;59.09;100875.66;4973881;28;19913;-88
2022/07/27 12:22:57;;;;;;;;;;;;;;;27.04;59.50;100875.72;4957003;28;19922;-88
2022/07/27 12:25:24;;;;;;;;;;;;;;;27.03;59.27;100876.63;4938618;28;19921;-88
2022/07/27 12:27:54;;;;;;;;;;;;;;;27.06;59.33;100873.91;4956620;28;20031;-87
2022/07/27 12:30:27;;;;;;;;;;;;;;;27.08;59.22;100879.25;4975782;28;19914;-89
2022/07/27 12:32:52;;;;;;;;;;;;;;;27.11;59.00;100871.16;4939048;29;19973;-88
2022/07/27 12:35:20;;;;;;;;;;;;;;;27.13;58.76;100872.91;4948240;28;19926;-87
2022/07/27 12:37:45;;;;;;;;;;;;;;;27.13;58.55;100877.38;4957674;28;20315;-89
2022/07/27 12:40:15;;;;;;;;;;;;;;;27.08;58.62;100873.91;4967803;28;20442;-88
2022/07/27 12:42:42;;;;;;;;;;;;;;;27.10;58.44;100880.13;4950006;28;19919;-88
2022/07/27 12:45:11;;;;;;;;;;;;;;;27.07;58.92;100864.94;4956587;28;19918;-89
2022/07/27 12:47:40;;;;;;;;;;;;;;;27.09;58.43;100872.97;4958075;28;19977;-89
2022/07/27 12:50:07;;;;;;;;;;;;;;;27.07;58.69;100872.09;4968319;28;20342;-87